Time;durP1;ratioP1;P1;durP2;ratioP2;P2;SDS_P1;SDS_P2;PMS_P1;PMS_P2;Temp;Humidity;BMP_temperature;BMP_pressure;BME280_temperature;BME280_humidity;BME280_pressure;Samples;Min_cycle;Max_cycle;Signal;HPM_P1;HPM_P2
2022/08/20 00:01:55;;;;;;;;;;;20.90;72.40;;;;;;5129165;27;20368;-68
2022/08/20 00:04:23;;;;;;;;;;;20.80;72.40;;;;;;5130557;27;19919;-68
2022/08/20 00:06:50;;;;;;;;;;;20.80;72.60;;;;;;5131648;27;19919;-70
2022/08/20 00:09:19;;;;;;;;;;;20.80;72.70;;;;;;5121724;27;19919;-69
2022/08/20 00:11:46;;;;;;;;;;;20.70;72.80;;;;;;5129503;27;19972;-69
2022/08/20 00:14:13;;;;;;;;;;;20.70;72.90;;;;;;5127092;27;20344;-69
2022/08/20 00:16:39;;;;;;;;;;;20.70;73.00;;;;;;5130367;27;20414;-69
2022/08/20 00:19:07;;;;;;;;;;;20.70;72.90;;;;;;5129681;27;19980;-69
2022/08/20 00:21:34;;;;;;;;;;;20.70;73.00;;;;;;5123625;27;19919;-69
2022/08/20 00:24:01;;;;;;;;;;;20.60;73.30;;;;;;5130847;27;20372;-68
2022/08/20 00:26:29;;;;;;;;;;;20.60;73.30;;;;;;5129225;27;20311;-68
2022/08/20 00:28:56;;;;;;;;;;;20.50;73.50;;;;;;5120998;27;19954;-69
2022/08/20 00:31:23;;;;;;;;;;;20.50;73.50;;;;;;5129132;27;19920;-69
2022/08/20 00:33:50;;;;;;;;;;;20.50;73.70;;;;;;5126823;27;19931;-67
2022/08/20 00:36:18;;;;;;;;;;;20.50;73.70;;;;;;5131385;27;20360;-69
2022/08/20 00:38:45;;;;;;;;;;;20.40;73.80;;;;;;5125289;27;20016;-69
2022/08/20 00:41:13;;;;;;;;;;;20.40;73.80;;;;;;5139178;27;19919;-68
2022/08/20 00:43:42;;;;;;;;;;;20.40;73.80;;;;;;5129842;27;19923;-69
2022/08/20 00:46:11;;;;;;;;;;;20.40;73.80;;;;;;5114555;27;20361;-69
2022/08/20 00:48:39;;;;;;;;;;;20.40;73.70;;;;;;5114577;27;19923;-69
2022/08/20 00:51:07;;;;;;;;;;;20.40;73.70;;;;;;5130676;27;19927;-69
2022/08/20 00:53:34;;;;;;;;;;;20.40;73.70;;;;;;5129379;27;19927;-69
2022/08/20 00:56:01;;;;;;;;;;;20.40;73.90;;;;;;5129458;27;20369;-69
2022/08/20 00:58:28;;;;;;;;;;;20.40;73.70;;;;;;5126271;27;19926;-68
2022/08/20 01:00:56;;;;;;;;;;;20.40;73.80;;;;;;5126725;27;19919;-69
2022/08/20 01:03:23;;;;;;;;;;;20.40;73.70;;;;;;5131440;27;19927;-69
2022/08/20 01:05:51;;;;;;;;;;;20.40;73.70;;;;;;5129030;27;19927;-69
2022/08/20 01:08:20;;;;;;;;;;;20.40;73.70;;;;;;5130997;27;19933;-69
2022/08/20 01:10:48;;;;;;;;;;;20.40;73.70;;;;;;5124138;27;19926;-70
2022/08/20 01:13:17;;;;;;;;;;;20.40;73.60;;;;;;5128325;27;19986;-69
2022/08/20 01:15:45;;;;;;;;;;;20.30;73.80;;;;;;5126813;27;20019;-69
2022/08/20 01:18:16;;;;;;;;;;;20.30;73.80;;;;;;5128365;27;20296;-69
2022/08/20 01:20:44;;;;;;;;;;;20.30;73.90;;;;;;5122715;27;20041;-69
2022/08/20 01:23:29;;;;;;;;;;;20.20;74.00;;;;;;5121667;27;19926;-69
2022/08/20 01:26:03;;;;;;;;;;;20.20;74.10;;;;;;5131533;27;19919;-69
2022/08/20 01:28:33;;;;;;;;;;;20.20;74.10;;;;;;5131050;27;19923;-69
2022/08/20 01:31:00;;;;;;;;;;;20.10;74.00;;;;;;5124353;27;19923;-68
2022/08/20 01:33:28;;;;;;;;;;;20.10;74.10;;;;;;5131105;27;20379;-68
2022/08/20 01:35:55;;;;;;;;;;;20.10;74.10;;;;;;5135557;27;19923;-67
2022/08/20 01:38:21;;;;;;;;;;;20.10;74.30;;;;;;5133661;27;19919;-68
2022/08/20 01:41:08;;;;;;;;;;;20.00;74.40;;;;;;5135384;27;19927;-70
2022/08/20 01:43:35;;;;;;;;;;;20.00;74.50;;;;;;5130582;27;19930;-68
2022/08/20 01:46:02;;;;;;;;;;;20.00;74.50;;;;;;5134739;27;19923;-69
2022/08/20 01:48:29;;;;;;;;;;;20.00;74.50;;;;;;5135171;27;19923;-69
2022/08/20 01:51:03;;;;;;;;;;;20.00;74.50;;;;;;5133514;27;19919;-68
2022/08/20 01:53:33;;;;;;;;;;;19.90;74.50;;;;;;5129371;27;19931;-68
2022/08/20 01:56:02;;;;;;;;;;;20.00;74.50;;;;;;5132567;27;19923;-69
2022/08/20 01:58:29;;;;;;;;;;;20.00;74.50;;;;;;5130472;27;20313;-69
2022/08/20 02:00:56;;;;;;;;;;;20.00;74.60;;;;;;5127176;27;19923;-69
2022/08/20 02:03:23;;;;;;;;;;;19.90;74.70;;;;;;5133715;27;19934;-68
2022/08/20 02:05:49;;;;;;;;;;;19.90;74.70;;;;;;5130324;27;20010;-69
2022/08/20 02:08:17;;;;;;;;;;;19.90;74.70;;;;;;5131982;27;19923;-69
2022/08/20 02:10:45;;;;;;;;;;;19.90;74.70;;;;;;5132914;27;20368;-69
2022/08/20 02:13:13;;;;;;;;;;;19.90;74.50;;;;;;5131139;27;20034;-69
2022/08/20 02:15:40;;;;;;;;;;;19.90;74.60;;;;;;5127064;27;19920;-68
2022/08/20 02:18:08;;;;;;;;;;;19.90;74.60;;;;;;5132933;27;20410;-68
2022/08/20 02:20:36;;;;;;;;;;;19.90;74.60;;;;;;5128014;27;19919;-69
2022/08/20 02:23:04;;;;;;;;;;;19.90;74.40;;;;;;5131765;27;20010;-67
2022/08/20 02:25:31;;;;;;;;;;;19.90;74.30;;;;;;5127926;27;20022;-68
2022/08/20 02:27:59;;;;;;;;;;;19.80;74.40;;;;;;5132528;27;19925;-67
2022/08/20 02:30:29;;;;;;;;;;;19.90;74.30;;;;;;5133604;27;20039;-68
2022/08/20 02:32:56;;;;;;;;;;;19.90;74.20;;;;;;5132762;27;20292;-68
2022/08/20 02:35:23;;;;;;;;;;;19.80;74.20;;;;;;5136875;27;19919;-69
2022/08/20 02:37:50;;;;;;;;;;;19.90;74.20;;;;;;5128202;27;20625;-68
2022/08/20 02:40:18;;;;;;;;;;;19.90;74.20;;;;;;5130923;27;19919;-68
2022/08/20 02:42:46;;;;;;;;;;;19.90;74.20;;;;;;5126255;27;20697;-69
2022/08/20 02:45:14;;;;;;;;;;;19.90;74.20;;;;;;5132574;27;20376;-69
2022/08/20 02:47:44;;;;;;;;;;;19.80;74.30;;;;;;5134762;27;19927;-70
2022/08/20 02:50:11;;;;;;;;;;;19.90;74.30;;;;;;5122310;27;19946;-68
2022/08/20 02:52:38;;;;;;;;;;;19.90;74.30;;;;;;5128918;27;20288;-68
2022/08/20 02:55:05;;;;;;;;;;;19.90;74.40;;;;;;5132210;27;19919;-69
2022/08/20 02:57:32;;;;;;;;;;;19.90;74.40;;;;;;5130763;27;19919;-68
2022/08/20 02:59:59;;;;;;;;;;;19.90;74.40;;;;;;5133823;27;19927;-69
2022/08/20 03:02:25;;;;;;;;;;;19.90;74.40;;;;;;5128987;27;20035;-69
2022/08/20 03:04:53;;;;;;;;;;;19.90;74.40;;;;;;5128877;27;19923;-67
2022/08/20 03:07:21;;;;;;;;;;;19.90;74.50;;;;;;5130694;27;20300;-68
2022/08/20 03:09:48;;;;;;;;;;;19.90;74.60;;;;;;5133861;27;20002;-68
2022/08/20 03:12:15;;;;;;;;;;;19.90;74.50;;;;;;5132958;27;19919;-69
2022/08/20 03:14:42;;;;;;;;;;;19.90;74.50;;;;;;5122397;27;19963;-69
2022/08/20 03:17:08;;;;;;;;;;;19.80;74.60;;;;;;5132120;27;19925;-69
2022/08/20 03:19:35;;;;;;;;;;;19.80;74.60;;;;;;5124520;27;19920;-68
2022/08/20 03:22:03;;;;;;;;;;;19.80;74.70;;;;;;5130163;27;20372;-68
2022/08/20 03:24:30;;;;;;;;;;;19.90;74.70;;;;;;5133350;27;19924;-68
2022/08/20 03:26:57;;;;;;;;;;;19.90;74.60;;;;;;5127874;27;19926;-69
2022/08/20 03:29:24;;;;;;;;;;;19.90;74.60;;;;;;5133339;27;20011;-68
2022/08/20 03:31:50;;;;;;;;;;;19.80;74.70;;;;;;5124989;27;19919;-68
2022/08/20 03:34:17;;;;;;;;;;;19.80;74.70;;;;;;5128923;27;19950;-68
2022/08/20 03:36:44;;;;;;;;;;;19.80;74.70;;;;;;5131531;27;19920;-69
2022/08/20 03:39:12;;;;;;;;;;;19.80;74.90;;;;;;5134760;27;19926;-68
2022/08/20 03:41:39;;;;;;;;;;;19.70;75.00;;;;;;5120832;27;20005;-68
2022/08/20 03:44:05;;;;;;;;;;;19.70;75.20;;;;;;5126892;27;19919;-68
2022/08/20 03:46:32;;;;;;;;;;;19.70;75.20;;;;;;5125484;27;20031;-68
2022/08/20 03:48:59;;;;;;;;;;;19.70;75.20;;;;;;5129106;27;19942;-68
2022/08/20 03:51:25;;;;;;;;;;;19.60;75.30;;;;;;5129537;27;20273;-68
2022/08/20 03:53:52;;;;;;;;;;;19.60;75.40;;;;;;5120621;27;19927;-69
2022/08/20 03:56:20;;;;;;;;;;;19.60;75.40;;;;;;5127667;27;20343;-69
2022/08/20 03:58:47;;;;;;;;;;;19.60;75.40;;;;;;5129450;27;19926;-69
2022/08/20 04:01:15;;;;;;;;;;;19.60;75.40;;;;;;5123485;27;19930;-68
2022/08/20 04:03:42;;;;;;;;;;;19.60;75.40;;;;;;5130575;27;19919;-69
2022/08/20 04:06:08;;;;;;;;;;;19.60;75.40;;;;;;5124171;27;20026;-67
2022/08/20 04:08:36;;;;;;;;;;;19.60;75.30;;;;;;5130624;27;19926;-68
2022/08/20 04:11:03;;;;;;;;;;;19.60;75.30;;;;;;5130299;27;19919;-67
2022/08/20 04:13:31;;;;;;;;;;;19.60;75.20;;;;;;5131417;27;19942;-68
2022/08/20 04:16:00;;;;;;;;;;;19.60;75.20;;;;;;5131499;27;19919;-68
2022/08/20 04:18:27;;;;;;;;;;;19.50;75.20;;;;;;5126506;27;19973;-69
2022/08/20 04:20:54;;;;;;;;;;;19.50;75.40;;;;;;5132368;27;19919;-68
2022/08/20 04:23:21;;;;;;;;;;;19.50;75.40;;;;;;5127413;27;20288;-69
2022/08/20 04:25:48;;;;;;;;;;;19.50;75.40;;;;;;5128348;27;19927;-68
2022/08/20 04:28:20;;;;;;;;;;;19.50;75.40;;;;;;5129855;27;19920;-69
2022/08/20 04:30:48;;;;;;;;;;;19.50;75.50;;;;;;5131149;27;19927;-68
2022/08/20 04:33:15;;;;;;;;;;;19.50;75.60;;;;;;5131123;27;19962;-69
2022/08/20 04:35:42;;;;;;;;;;;19.50;75.50;;;;;;5132843;27;19926;-68
2022/08/20 04:38:11;;;;;;;;;;;19.50;75.60;;;;;;5133239;27;19919;-69
2022/08/20 04:40:53;;;;;;;;;;;19.50;75.60;;;;;;5126471;27;19927;-70
2022/08/20 04:43:21;;;;;;;;;;;19.50;75.40;;;;;;5131710;27;19923;-69
2022/08/20 04:45:50;;;;;;;;;;;19.40;75.50;;;;;;5132045;27;20364;-68
2022/08/20 04:48:17;;;;;;;;;;;19.50;75.50;;;;;;5131339;27;19998;-68
2022/08/20 04:50:45;;;;;;;;;;;19.50;75.50;;;;;;5125532;27;19919;-68
2022/08/20 04:53:13;;;;;;;;;;;19.40;75.50;;;;;;5129353;27;20315;-69
2022/08/20 04:55:41;;;;;;;;;;;19.50;75.60;;;;;;5133655;27;19920;-69
2022/08/20 04:58:10;;;;;;;;;;;19.40;75.70;;;;;;5131530;27;19919;-69
2022/08/20 05:00:37;;;;;;;;;;;19.50;75.30;;;;;;5125573;27;19920;-68
2022/08/20 05:03:05;;;;;;;;;;;19.50;75.20;;;;;;5131797;27;19918;-69
2022/08/20 05:05:33;;;;;;;;;;;19.50;75.20;;;;;;5133602;27;19959;-68
2022/08/20 05:08:00;;;;;;;;;;;19.50;75.30;;;;;;5137477;27;19923;-68
2022/08/20 05:10:28;;;;;;;;;;;19.40;75.40;;;;;;5133436;27;19923;-69
2022/08/20 05:12:55;;;;;;;;;;;19.40;75.40;;;;;;5134748;27;19933;-69
2022/08/20 05:15:24;;;;;;;;;;;19.50;75.40;;;;;;5134964;27;19930;-68
2022/08/20 05:17:54;;;;;;;;;;;19.50;75.40;;;;;;5131361;27;19989;-69
2022/08/20 05:20:23;;;;;;;;;;;19.50;75.50;;;;;;5131466;27;20018;-68
2022/08/20 05:22:51;;;;;;;;;;;19.60;75.50;;;;;;5135654;27;19949;-69
2022/08/20 05:25:17;;;;;;;;;;;19.60;75.40;;;;;;5135370;27;20322;-67
2022/08/20 05:27:44;;;;;;;;;;;19.60;75.50;;;;;;5127382;27;19926;-68
2022/08/20 05:30:11;;;;;;;;;;;19.60;75.50;;;;;;5137634;27;19926;-69
2022/08/20 05:32:38;;;;;;;;;;;19.60;75.40;;;;;;5128109;27;19920;-69
2022/08/20 05:35:07;;;;;;;;;;;19.60;75.70;;;;;;5133839;27;19920;-68
2022/08/20 05:37:36;;;;;;;;;;;19.60;75.90;;;;;;5141371;27;20041;-68
2022/08/20 05:40:07;;;;;;;;;;;19.60;75.90;;;;;;5132912;27;19934;-70
2022/08/20 05:42:34;;;;;;;;;;;19.60;76.00;;;;;;5135895;27;20300;-68
2022/08/20 05:45:01;;;;;;;;;;;19.60;76.00;;;;;;5128568;27;19926;-70
2022/08/20 05:47:28;;;;;;;;;;;19.60;75.90;;;;;;5134790;27;19919;-69
2022/08/20 05:49:55;;;;;;;;;;;19.60;75.80;;;;;;5130213;27;19926;-68
2022/08/20 05:52:21;;;;;;;;;;;19.60;76.00;;;;;;5135781;27;19919;-69
2022/08/20 05:54:52;;;;;;;;;;;19.60;76.10;;;;;;5138057;27;19919;-69
2022/08/20 05:57:19;;;;;;;;;;;19.60;76.20;;;;;;5135443;27;19972;-68
2022/08/20 05:59:46;;;;;;;;;;;19.60;76.10;;;;;;5138261;27;20270;-69
2022/08/20 06:04:54;;;;;;;;;;;19.70;76.00;;;;;;5133642;27;19923;-69
2022/08/20 06:07:21;;;;;;;;;;;19.70;76.00;;;;;;5142895;27;19929;-68
2022/08/20 06:09:47;;;;;;;;;;;19.70;75.90;;;;;;5128796;27;19923;-68
2022/08/20 06:12:16;;;;;;;;;;;19.70;75.80;;;;;;5137296;27;19924;-68
2022/08/20 06:14:46;;;;;;;;;;;19.70;75.70;;;;;;5129721;27;20295;-68
2022/08/20 06:17:14;;;;;;;;;;;19.70;75.70;;;;;;5135280;27;20372;-69
2022/08/20 06:19:41;;;;;;;;;;;19.70;75.70;;;;;;5130871;27;20016;-68
2022/08/20 06:22:07;;;;;;;;;;;19.70;75.60;;;;;;5129117;27;19927;-68
2022/08/20 06:24:34;;;;;;;;;;;19.80;75.50;;;;;;5134705;27;19926;-68
2022/08/20 06:27:02;;;;;;;;;;;19.80;75.50;;;;;;5133579;27;19919;-69
2022/08/20 06:29:32;;;;;;;;;;;19.80;75.50;;;;;;5132124;27;19950;-68
2022/08/20 06:32:00;;;;;;;;;;;19.80;75.40;;;;;;5123960;27;20254;-68
2022/08/20 06:34:27;;;;;;;;;;;19.90;75.40;;;;;;5124966;27;19940;-69
2022/08/20 06:36:54;;;;;;;;;;;19.90;75.30;;;;;;5136352;27;19959;-68
2022/08/20 06:39:21;;;;;;;;;;;19.80;75.30;;;;;;5134719;27;20434;-69
2022/08/20 06:41:48;;;;;;;;;;;19.90;75.20;;;;;;5125257;27;19919;-69
2022/08/20 06:44:15;;;;;;;;;;;19.90;75.20;;;;;;5131222;27;19933;-70
2022/08/20 06:46:43;;;;;;;;;;;19.80;75.20;;;;;;5131479;27;19926;-69
2022/08/20 06:49:10;;;;;;;;;;;19.90;75.30;;;;;;5131369;27;20015;-69
2022/08/20 06:51:37;;;;;;;;;;;19.90;75.30;;;;;;5130730;27;19923;-68
2022/08/20 06:54:04;;;;;;;;;;;19.90;75.50;;;;;;5132123;27;19989;-68
2022/08/20 06:56:30;;;;;;;;;;;19.80;75.50;;;;;;5129720;27;20041;-69
2022/08/20 06:58:57;;;;;;;;;;;19.90;75.40;;;;;;5133309;27;19920;-69
2022/08/20 07:01:24;;;;;;;;;;;19.90;75.30;;;;;;5127693;27;19923;-68
2022/08/20 07:03:52;;;;;;;;;;;19.90;75.40;;;;;;5129202;27;19927;-69
2022/08/20 07:06:19;;;;;;;;;;;19.90;75.50;;;;;;5131083;27;19923;-69
2022/08/20 07:08:46;;;;;;;;;;;19.90;75.70;;;;;;5121548;27;19920;-69
2022/08/20 07:11:13;;;;;;;;;;;19.90;75.70;;;;;;5130253;27;19929;-70
2022/08/20 07:13:40;;;;;;;;;;;19.90;75.80;;;;;;5128108;27;20303;-69
2022/08/20 07:16:07;;;;;;;;;;;19.90;75.90;;;;;;5120136;27;19930;-69
2022/08/20 07:18:34;;;;;;;;;;;19.90;75.80;;;;;;5126478;27;19935;-69
2022/08/20 07:21:02;;;;;;;;;;;19.90;75.90;;;;;;5125684;27;19927;-68
2022/08/20 07:23:30;;;;;;;;;;;20.00;76.00;;;;;;5130362;27;19923;-69
2022/08/20 07:25:57;;;;;;;;;;;20.00;75.90;;;;;;5130675;27;19934;-69
2022/08/20 07:28:25;;;;;;;;;;;20.10;75.70;;;;;;5123363;27;19934;-69
2022/08/20 07:33:37;;;;;;;;;;;20.20;75.30;;;;;;5132401;27;20452;-68
2022/08/20 07:36:05;;;;;;;;;;;20.20;75.00;;;;;;5128695;27;20014;-68
2022/08/20 07:38:33;;;;;;;;;;;20.30;75.00;;;;;;5136216;27;20372;-69
2022/08/20 07:41:00;;;;;;;;;;;20.40;74.80;;;;;;5128287;27;19920;-68
2022/08/20 07:43:28;;;;;;;;;;;20.50;74.70;;;;;;5129189;27;19920;-69
2022/08/20 07:45:56;;;;;;;;;;;20.60;74.50;;;;;;5133087;27;19924;-68
2022/08/20 07:48:24;;;;;;;;;;;20.60;74.20;;;;;;5131099;27;19924;-69
2022/08/20 07:50:51;;;;;;;;;;;20.70;74.20;;;;;;5131977;27;20368;-69
2022/08/20 07:53:19;;;;;;;;;;;20.70;74.00;;;;;;5130043;27;19947;-69
2022/08/20 07:55:46;;;;;;;;;;;20.80;74.00;;;;;;5132862;27;19920;-70
2022/08/20 07:58:15;;;;;;;;;;;20.70;74.00;;;;;;5132561;27;20326;-70
2022/08/20 08:00:41;;;;;;;;;;;20.70;73.80;;;;;;5124745;27;19927;-62
2022/08/20 08:03:09;;;;;;;;;;;20.80;73.80;;;;;;5130500;27;19941;-62
2022/08/20 08:05:39;;;;;;;;;;;20.80;73.80;;;;;;5132673;27;19966;-62
2022/08/20 08:08:06;;;;;;;;;;;20.90;73.80;;;;;;5132146;27;20371;-62
2022/08/20 08:10:35;;;;;;;;;;;21.10;73.60;;;;;;5126654;27;19923;-61
2022/08/20 08:13:03;;;;;;;;;;;21.10;73.40;;;;;;5132112;27;20364;-62
2022/08/20 08:15:32;;;;;;;;;;;21.30;73.50;;;;;;5130037;27;20400;-61
2022/08/20 08:18:00;;;;;;;;;;;21.40;73.70;;;;;;5124800;27;19973;-62
2022/08/20 08:20:27;;;;;;;;;;;21.50;73.80;;;;;;5122293;27;20327;-62
2022/08/20 08:22:56;;;;;;;;;;;21.50;73.90;;;;;;5131187;27;19923;-61
2022/08/20 08:25:22;;;;;;;;;;;21.60;74.00;;;;;;5128798;27;19923;-62
2022/08/20 08:27:51;;;;;;;;;;;21.60;73.90;;;;;;5118592;27;19941;-63
2022/08/20 08:30:17;;;;;;;;;;;21.70;74.00;;;;;;5125357;27;19919;-62
2022/08/20 08:35:25;;;;;;;;;;;21.90;73.80;;;;;;5130089;27;19946;-63
2022/08/20 08:37:52;;;;;;;;;;;22.10;74.10;;;;;;5122397;27;20399;-61
2022/08/20 08:40:20;;;;;;;;;;;22.20;73.70;;;;;;5127455;27;19919;-62
2022/08/20 08:42:56;;;;;;;;;;;22.30;73.20;;;;;;5129114;27;19919;-63
2022/08/20 08:45:27;;;;;;;;;;;22.40;73.30;;;;;;5127988;27;19923;-63
2022/08/20 08:47:55;;;;;;;;;;;22.50;73.10;;;;;;5126802;27;20292;-62
2022/08/20 08:50:24;;;;;;;;;;;22.60;72.90;;;;;;5127531;27;20030;-63
2022/08/20 08:52:52;;;;;;;;;;;22.70;72.50;;;;;;5127176;27;19971;-61
2022/08/20 08:55:20;;;;;;;;;;;22.90;72.30;;;;;;5129070;27;20376;-62
2022/08/20 08:57:48;;;;;;;;;;;23.10;71.70;;;;;;5129728;27;19919;-62
2022/08/20 09:00:16;;;;;;;;;;;23.40;71.30;;;;;;5122197;27;19934;-63
2022/08/20 09:02:54;;;;;;;;;;;23.50;70.80;;;;;;5130220;27;19969;-62
2022/08/20 09:05:23;;;;;;;;;;;23.60;70.40;;;;;;5130114;27;19919;-61
2022/08/20 09:07:50;;;;;;;;;;;23.70;70.10;;;;;;5123389;27;19919;-62
2022/08/20 09:10:17;;;;;;;;;;;23.90;69.40;;;;;;5126981;27;19919;-61
2022/08/20 09:12:45;;;;;;;;;;;24.00;69.20;;;;;;5129708;27;19920;-61
2022/08/20 09:15:12;;;;;;;;;;;24.10;68.90;;;;;;5129269;27;19923;-61
2022/08/20 09:17:38;;;;;;;;;;;24.00;68.50;;;;;;5131346;27;20356;-61
2022/08/20 09:20:09;;;;;;;;;;;24.00;68.60;;;;;;5127789;27;20326;-61
2022/08/20 09:22:35;;;;;;;;;;;23.90;68.60;;;;;;5131467;27;19930;-61
2022/08/20 09:25:02;;;;;;;;;;;23.90;68.50;;;;;;5125583;27;19972;-61
2022/08/20 09:27:30;;;;;;;;;;;24.00;68.30;;;;;;5128055;27;19919;-61
2022/08/20 09:29:57;;;;;;;;;;;24.00;68.40;;;;;;5128868;27;19957;-61
2022/08/20 09:32:24;;;;;;;;;;;24.10;68.10;;;;;;5127183;27;20015;-61
2022/08/20 09:34:55;;;;;;;;;;;24.10;67.80;;;;;;5127782;27;19926;-61
2022/08/20 09:37:23;;;;;;;;;;;24.10;67.40;;;;;;5131658;27;19930;-62
2022/08/20 09:39:50;;;;;;;;;;;24.20;67.60;;;;;;5127676;27;19927;-62
2022/08/20 09:42:18;;;;;;;;;;;24.20;67.50;;;;;;5131473;27;19954;-61
2022/08/20 09:44:45;;;;;;;;;;;24.20;67.10;;;;;;5123726;27;19938;-61
2022/08/20 09:47:12;;;;;;;;;;;24.30;67.10;;;;;;5131366;27;19920;-62
2022/08/20 09:49:39;;;;;;;;;;;24.30;66.80;;;;;;5126160;27;19926;-62
2022/08/20 09:52:08;;;;;;;;;;;24.40;66.70;;;;;;5130306;27;19923;-61
2022/08/20 09:54:37;;;;;;;;;;;24.40;66.50;;;;;;5135531;27;20376;-60
2022/08/20 09:57:05;;;;;;;;;;;24.40;66.20;;;;;;5134016;27;20402;-61
2022/08/20 09:59:33;;;;;;;;;;;24.40;66.00;;;;;;5131407;27;20014;-62
2022/08/20 10:01:59;;;;;;;;;;;24.60;65.60;;;;;;5130373;27;19926;-61
2022/08/20 10:04:26;;;;;;;;;;;24.70;65.80;;;;;;5131942;27;19963;-60
2022/08/20 10:06:53;;;;;;;;;;;24.80;65.20;;;;;;5131392;27;20284;-61
2022/08/20 10:09:19;;;;;;;;;;;25.00;65.00;;;;;;5133184;27;19927;-61
2022/08/20 10:11:48;;;;;;;;;;;25.20;64.70;;;;;;5131706;27;19930;-60
2022/08/20 10:14:14;;;;;;;;;;;25.40;63.90;;;;;;5132929;27;19920;-62
2022/08/20 10:16:41;;;;;;;;;;;25.50;63.30;;;;;;5132120;27;19928;-61
2022/08/20 10:19:08;;;;;;;;;;;25.50;62.40;;;;;;5125930;27;19923;-61
2022/08/20 10:21:35;;;;;;;;;;;25.50;62.00;;;;;;5133914;27;19919;-63
2022/08/20 10:24:01;;;;;;;;;;;25.50;61.50;;;;;;5126068;27;19930;-61
2022/08/20 10:26:28;;;;;;;;;;;25.60;61.60;;;;;;5128449;27;19926;-61
2022/08/20 10:28:56;;;;;;;;;;;25.50;61.60;;;;;;5129737;27;19926;-61
2022/08/20 10:31:23;;;;;;;;;;;25.40;61.70;;;;;;5134940;27;19926;-61
2022/08/20 10:33:50;;;;;;;;;;;25.40;61.70;;;;;;5132165;27;19933;-63
2022/08/20 10:36:17;;;;;;;;;;;25.40;62.10;;;;;;5127990;27;20252;-62
2022/08/20 10:38:44;;;;;;;;;;;25.30;62.10;;;;;;5130408;27;19920;-60
2022/08/20 10:41:11;;;;;;;;;;;25.30;62.10;;;;;;5132073;27;19920;-60
2022/08/20 10:43:38;;;;;;;;;;;25.20;62.40;;;;;;5128695;27;19920;-60
2022/08/20 10:46:06;;;;;;;;;;;25.10;63.00;;;;;;5133430;27;19925;-61
2022/08/20 10:48:33;;;;;;;;;;;25.10;63.90;;;;;;5131949;27;19919;-61
2022/08/20 10:50:59;;;;;;;;;;;25.00;64.70;;;;;;5126557;27;19927;-60
2022/08/20 10:53:26;;;;;;;;;;;25.00;65.40;;;;;;5129686;27;19926;-63
2022/08/20 10:55:53;;;;;;;;;;;24.90;66.20;;;;;;5134451;27;19919;-62
2022/08/20 10:58:20;;;;;;;;;;;24.90;66.00;;;;;;5133571;27;19923;-61
2022/08/20 11:00:46;;;;;;;;;;;25.10;66.60;;;;;;5122189;27;19958;-60
2022/08/20 11:03:15;;;;;;;;;;;25.10;65.70;;;;;;5128388;27;19958;-61
2022/08/20 11:05:41;;;;;;;;;;;25.10;65.70;;;;;;5130713;27;19956;-60
2022/08/20 11:08:08;;;;;;;;;;;25.10;65.70;;;;;;5132617;27;19943;-61
2022/08/20 11:10:35;;;;;;;;;;;25.10;65.70;;;;;;5124319;27;19920;-61
2022/08/20 11:13:02;;;;;;;;;;;25.10;65.30;;;;;;5132546;27;19923;-62
2022/08/20 11:15:29;;;;;;;;;;;25.10;64.80;;;;;;5135472;27;19927;-62
2022/08/20 11:17:56;;;;;;;;;;;25.10;64.60;;;;;;5133549;27;20280;-60
2022/08/20 11:20:25;;;;;;;;;;;25.30;64.20;;;;;;5131718;27;19943;-62
2022/08/20 11:22:51;;;;;;;;;;;25.30;64.40;;;;;;5133168;27;19927;-61
2022/08/20 11:25:19;;;;;;;;;;;25.20;64.00;;;;;;5131236;27;20390;-61
2022/08/20 11:27:47;;;;;;;;;;;25.20;63.10;;;;;;5132852;27;19919;-62
2022/08/20 11:30:15;;;;;;;;;;;25.10;62.70;;;;;;5127749;27;20042;-61
2022/08/20 11:32:42;;;;;;;;;;;25.10;62.80;;;;;;5133550;27;19920;-61
2022/08/20 11:35:09;;;;;;;;;;;25.10;62.90;;;;;;5132085;27;20471;-61
2022/08/20 11:37:37;;;;;;;;;;;25.10;63.00;;;;;;5131694;27;19923;-61
2022/08/20 11:40:06;;;;;;;;;;;25.20;63.00;;;;;;5132385;27;20281;-62
2022/08/20 11:42:33;;;;;;;;;;;25.30;62.90;;;;;;5131300;27;20347;-62
2022/08/20 11:45:00;;;;;;;;;;;25.30;62.80;;;;;;5129387;27;19926;-60
2022/08/20 11:47:28;;;;;;;;;;;25.40;62.30;;;;;;5133027;27;19923;-61
2022/08/20 11:49:58;;;;;;;;;;;25.50;61.80;;;;;;5129734;27;19920;-61
2022/08/20 11:52:25;;;;;;;;;;;25.50;61.90;;;;;;5127830;27;20368;-61
2022/08/20 11:54:53;;;;;;;;;;;25.50;61.80;;;;;;5131315;27;19930;-60
2022/08/20 11:57:21;;;;;;;;;;;25.60;61.20;;;;;;5122690;27;19919;-61
2022/08/20 11:59:49;;;;;;;;;;;25.60;60.90;;;;;;5130245;27;20380;-62
2022/08/20 12:02:15;;;;;;;;;;;25.60;60.70;;;;;;5122506;27;20234;-60
2022/08/20 12:04:42;;;;;;;;;;;25.60;60.40;;;;;;5125398;27;19926;-60
2022/08/20 12:07:10;;;;;;;;;;;25.70;60.40;;;;;;5131230;27;20055;-61
2022/08/20 12:09:36;;;;;;;;;;;25.70;60.50;;;;;;5124241;27;19919;-60
2022/08/20 12:12:05;;;;;;;;;;;25.80;59.40;;;;;;5123024;27;19976;-60
2022/08/20 12:14:32;;;;;;;;;;;25.80;58.90;;;;;;5130305;27;21237;-61
2022/08/20 12:17:07;;;;;;;;;;;25.90;57.60;;;;;;5130172;27;19923;-61
2022/08/20 12:19:36;;;;;;;;;;;25.80;57.40;;;;;;5122288;27;19964;-61
2022/08/20 12:22:02;;;;;;;;;;;25.80;57.90;;;;;;5123303;27;19926;-61
2022/08/20 12:24:29;;;;;;;;;;;25.90;58.10;;;;;;5130507;27;19919;-62
2022/08/20 12:26:56;;;;;;;;;;;26.00;57.90;;;;;;5115443;27;19924;-62
2022/08/20 12:29:24;;;;;;;;;;;26.10;57.70;;;;;;5128432;27;20424;-62
2022/08/20 12:31:51;;;;;;;;;;;26.20;57.40;;;;;;5133540;27;19955;-61
2022/08/20 12:34:18;;;;;;;;;;;26.30;57.20;;;;;;5130564;27;20432;-61
2022/08/20 12:36:44;;;;;;;;;;;26.40;57.10;;;;;;5127952;27;19919;-62
2022/08/20 12:39:11;;;;;;;;;;;26.40;56.30;;;;;;5132168;27;19919;-62
2022/08/20 12:41:38;;;;;;;;;;;26.50;55.50;;;;;;5132084;27;19923;-63
2022/08/20 12:44:05;;;;;;;;;;;26.60;55.70;;;;;;5129044;27;20419;-60
2022/08/20 12:46:33;;;;;;;;;;;26.60;55.70;;;;;;5124339;27;19919;-61
2022/08/20 12:49:00;;;;;;;;;;;26.60;55.10;;;;;;5131303;27;19923;-62
2022/08/20 12:51:29;;;;;;;;;;;26.70;53.60;;;;;;5123344;27;20207;-60
2022/08/20 12:53:56;;;;;;;;;;;26.60;54.50;;;;;;5128453;27;19928;-61
2022/08/20 12:56:23;;;;;;;;;;;26.70;52.60;;;;;;5130993;27;19942;-60
2022/08/20 12:58:49;;;;;;;;;;;26.70;53.10;;;;;;5129404;27;20483;-62
2022/08/20 13:01:16;;;;;;;;;;;26.60;53.80;;;;;;5129004;27;20288;-62
2022/08/20 13:03:44;;;;;;;;;;;26.60;54.00;;;;;;5127913;27;20146;-61
2022/08/20 13:06:11;;;;;;;;;;;26.60;53.40;;;;;;5131928;27;20014;-64
2022/08/20 13:08:37;;;;;;;;;;;26.70;52.20;;;;;;5131551;27;19923;-60
2022/08/20 13:11:04;;;;;;;;;;;26.70;52.00;;;;;;5125927;27;19927;-62
2022/08/20 13:13:31;;;;;;;;;;;26.80;51.10;;;;;;5131501;27;20296;-61
2022/08/20 13:15:58;;;;;;;;;;;26.80;50.80;;;;;;5124512;27;19927;-61
2022/08/20 13:18:24;;;;;;;;;;;26.70;49.60;;;;;;5130157;27;19923;-61
2022/08/20 13:20:52;;;;;;;;;;;26.60;51.10;;;;;;5125553;27;19923;-62
2022/08/20 13:23:19;;;;;;;;;;;26.60;49.20;;;;;;5133209;27;19926;-61
2022/08/20 13:25:46;;;;;;;;;;;26.60;49.40;;;;;;5131606;27;19931;-61
2022/08/20 13:28:13;;;;;;;;;;;26.60;49.30;;;;;;5130816;27;19955;-61
2022/08/20 13:30:40;;;;;;;;;;;26.60;49.50;;;;;;5131834;27;19923;-61
2022/08/20 13:33:06;;;;;;;;;;;26.50;50.60;;;;;;5132141;27;19924;-61
2022/08/20 13:35:33;;;;;;;;;;;26.50;51.30;;;;;;5132914;27;20341;-61
2022/08/20 13:38:01;;;;;;;;;;;26.40;50.90;;;;;;5130747;27;19927;-62
2022/08/20 13:40:28;;;;;;;;;;;26.40;51.60;;;;;;5132968;27;19966;-61
2022/08/20 13:42:55;;;;;;;;;;;26.40;51.40;;;;;;5131707;27;20376;-60
2022/08/20 13:45:21;;;;;;;;;;;26.40;51.20;;;;;;5132881;27;19923;-60
2022/08/20 13:47:51;;;;;;;;;;;26.40;50.10;;;;;;5133679;27;19958;-60
2022/08/20 13:50:19;;;;;;;;;;;26.30;50.10;;;;;;5131737;27;19919;-60
2022/08/20 13:52:46;;;;;;;;;;;26.40;50.40;;;;;;5130377;27;19926;-61
2022/08/20 13:55:15;;;;;;;;;;;26.40;51.10;;;;;;5133494;27;19926;-61
2022/08/20 13:57:42;;;;;;;;;;;26.50;51.50;;;;;;5129753;27;19919;-62
2022/08/20 14:00:11;;;;;;;;;;;26.60;51.30;;;;;;5129333;27;19935;-61
2022/08/20 14:02:38;;;;;;;;;;;26.60;51.40;;;;;;5121789;27;20023;-61
2022/08/20 14:05:05;;;;;;;;;;;26.70;50.70;;;;;;5132133;27;20411;-61
2022/08/20 14:07:32;;;;;;;;;;;26.80;49.80;;;;;;5132144;27;19923;-61
2022/08/20 14:10:00;;;;;;;;;;;26.90;50.00;;;;;;5133546;27;20014;-63
2022/08/20 14:12:28;;;;;;;;;;;26.90;50.20;;;;;;5131026;27;19919;-62
2022/08/20 14:14:55;;;;;;;;;;;26.80;50.20;;;;;;5134909;27;19927;-60
2022/08/20 14:17:23;;;;;;;;;;;26.80;49.70;;;;;;5135988;27;19919;-61
2022/08/20 14:19:51;;;;;;;;;;;26.80;49.90;;;;;;5133688;27;19923;-61
2022/08/20 14:22:18;;;;;;;;;;;26.80;50.30;;;;;;5134163;27;20008;-62
2022/08/20 14:24:46;;;;;;;;;;;26.80;50.10;;;;;;5128129;27;20292;-61
2022/08/20 14:27:13;;;;;;;;;;;26.80;50.40;;;;;;5134487;27;20295;-62